Time;durP1;ratioP1;P1;durP2;ratioP2;P2;SDS_P1;SDS_P2;PMS_P1;PMS_P2;Temp;Humidity;BMP_temperature;BMP_pressure;BME280_temperature;BME280_humidity;BME280_pressure;Samples;Min_cycle;Max_cycle;Signal;HPM_P1;HPM_P2
2022/03/18 00:01:52;;;;;;;9.95;1.73;;;;;;;6.27;100.00;103945.38;5050819;28;20063;-30
2022/03/18 00:04:20;;;;;;;11.90;2.25;;;;;;;6.25;100.00;103947.47;5048400;28;20053;-29
2022/03/18 00:06:48;;;;;;;5.90;1.73;;;;;;;6.26;100.00;103946.44;5049866;28;20080;-30
2022/03/18 00:09:16;;;;;;;9.88;1.95;;;;;;;6.16;100.00;103952.31;5049655;28;20061;-30
2022/03/18 00:11:44;;;;;;;12.02;2.70;;;;;;;6.05;100.00;103949.16;5048022;28;20041;-31
2022/03/18 00:14:14;;;;;;;8.57;2.30;;;;;;;5.96;100.00;103961.41;5049598;28;20037;-30
2022/03/18 00:16:42;;;;;;;8.45;2.30;;;;;;;5.86;100.00;103958.88;5049242;28;20060;-29
2022/03/18 00:19:09;;;;;;;9.90;2.38;;;;;;;5.79;100.00;103960.72;5050742;28;20049;-29
2022/03/18 00:21:37;;;;;;;12.75;2.75;;;;;;;5.71;100.00;103964.44;5051573;28;20048;-33
2022/03/18 00:24:06;;;;;;;10.13;2.10;;;;;;;5.64;100.00;103969.00;5050698;28;20094;-28
2022/03/18 00:26:34;;;;;;;9.15;2.20;;;;;;;5.61;100.00;103972.16;5051488;28;20053;-30
2022/03/18 00:29:02;;;;;;;9.55;2.50;;;;;;;5.56;100.00;103980.19;5051339;28;20122;-29
2022/03/18 00:31:35;;;;;;;10.13;2.45;;;;;;;5.52;100.00;103987.16;5049182;28;20045;-30
2022/03/18 00:34:03;;;;;;;8.10;2.00;;;;;;;5.48;100.00;103974.72;5051460;28;20098;-29
2022/03/18 00:36:31;;;;;;;9.60;2.20;;;;;;;5.43;100.00;103980.81;5051363;28;20057;-30
2022/03/18 00:38:58;;;;;;;10.48;2.78;;;;;;;5.42;100.00;103969.94;5050597;28;20416;-28
2022/03/18 00:41:27;;;;;;;9.77;2.33;;;;;;;5.40;100.00;103972.03;5051270;28;20111;-29
2022/03/18 00:43:55;;;;;;;9.38;2.50;;;;;;;5.37;100.00;103976.06;5051235;28;20049;-29
2022/03/18 00:46:24;;;;;;;6.72;1.95;;;;;;;5.37;100.00;103975.22;5050269;28;20483;-30
2022/03/18 00:54:24;;;;;;;11.38;2.78;;;;;;;5.26;100.00;103978.41;5051174;28;20120;-32
2022/03/18 00:56:52;;;;;;;6.10;1.85;;;;;;;5.23;100.00;103984.31;5051109;28;20502;-28
2022/03/18 00:59:20;;;;;;;11.88;2.15;;;;;;;5.19;100.00;103989.38;5050342;28;20080;-29
2022/03/18 01:01:52;;;;;;;7.22;2.38;;;;;;;5.17;100.00;103988.72;5051207;28;20055;-28
2022/03/18 01:04:21;;;;;;;12.07;2.55;;;;;;;5.14;100.00;103978.00;5043203;28;20045;-28
2022/03/18 01:06:52;;;;;;;8.25;2.10;;;;;;;5.12;100.00;103988.41;5053955;28;20092;-29
2022/03/18 01:09:21;;;;;;;17.73;3.42;;;;;;;5.09;100.00;103986.00;5055383;28;20049;-28
2022/03/18 01:11:50;;;;;;;9.35;2.63;;;;;;;5.08;100.00;103987.06;5054921;28;20569;-30
2022/03/18 01:14:19;;;;;;;9.35;2.50;;;;;;;5.09;100.00;104000.72;5054032;28;20501;-34
2022/03/18 01:16:47;;;;;;;11.50;2.47;;;;;;;5.11;100.00;103998.63;5054372;28;20063;-30
2022/03/18 01:19:15;;;;;;;10.95;2.88;;;;;;;5.13;100.00;103993.75;5054653;28;20057;-28
2022/03/18 01:21:44;;;;;;;9.48;2.50;;;;;;;5.12;100.00;103996.72;5053668;28;20048;-29
2022/03/18 01:24:13;;;;;;;8.68;2.17;;;;;;;5.09;100.00;103999.84;5054757;28;20052;-28
2022/03/18 01:26:41;;;;;;;10.38;2.60;;;;;;;5.06;100.00;103998.31;5054391;28;20052;-29
2022/03/18 01:29:09;;;;;;;13.48;2.60;;;;;;;5.03;100.00;103993.13;5053473;28;20053;-29
2022/03/18 01:31:36;;;;;;;11.85;2.38;;;;;;;5.01;100.00;103994.38;5054317;28;20057;-29
2022/03/18 01:34:05;;;;;;;7.00;2.20;;;;;;;4.99;100.00;103991.81;5053819;28;20072;-28
2022/03/18 01:36:32;;;;;;;10.23;2.95;;;;;;;4.97;100.00;104004.97;5054114;28;20447;-28
2022/03/18 01:39:02;;;;;;;13.43;2.85;;;;;;;4.93;100.00;103997.22;5054233;28;20053;-30
2022/03/18 01:41:29;;;;;;;11.35;2.50;;;;;;;4.90;100.00;104000.34;5053493;28;20198;-34
2022/03/18 01:43:58;;;;;;;11.13;3.00;;;;;;;4.88;100.00;103995.00;5054113;28;20091;-32
2022/03/18 01:46:26;;;;;;;16.63;3.13;;;;;;;4.86;100.00;103999.84;5048621;28;20108;-28
2022/03/18 01:48:54;;;;;;;9.25;2.55;;;;;;;4.83;100.00;104003.84;5053627;28;20397;-28
2022/03/18 01:51:22;;;;;;;6.35;1.80;;;;;;;4.83;100.00;104014.91;5054034;28;20472;-28
2022/03/18 01:54:44;;;;;;;18.00;3.22;;;;;;;4.85;100.00;104014.72;5054078;28;20052;-30
2022/03/18 01:56:39;;;;;;;7.93;2.10;;;;;;;4.87;100.00;104026.47;5053196;28;20052;-28
2022/03/18 01:59:08;;;;;;;12.52;2.47;;;;;;;4.89;100.00;104032.69;5052446;28;20502;-30
2022/03/18 02:01:36;;;;;;;13.40;3.00;;;;;;;4.89;100.00;104031.81;5054343;28;20072;-29
2022/03/18 02:04:05;;;;;;;12.23;2.80;;;;;;;4.87;100.00;104043.06;5052982;28;20045;-29
2022/03/18 02:06:36;;;;;;;5.60;2.10;;;;;;;4.84;100.00;104038.75;5053783;28;20037;-29
2022/03/18 02:09:05;;;;;;;10.05;2.25;;;;;;;4.81;100.00;104039.13;5053612;28;20036;-30
2022/03/18 02:11:33;;;;;;;9.90;2.30;;;;;;;4.81;100.00;104041.03;5053349;28;20044;-28
2022/03/18 02:14:02;;;;;;;12.55;2.53;;;;;;;4.85;100.00;104045.16;5053707;28;20037;-28
2022/03/18 02:16:29;;;;;;;10.75;2.72;;;;;;;4.94;100.00;104037.69;5052100;28;20044;-28
2022/03/18 02:18:57;;;;;;;15.85;3.15;;;;;;;5.03;100.00;104054.03;5053234;28;20498;-28
2022/03/18 02:21:28;;;;;;;13.57;2.60;;;;;;;5.08;100.00;104040.50;5053728;28;20053;-30
2022/03/18 02:23:58;;;;;;;8.35;2.60;;;;;;;5.12;100.00;104044.63;5052476;28;20053;-30
2022/03/18 02:26:26;;;;;;;10.18;2.47;;;;;;;5.17;100.00;104049.63;5053745;28;20136;-28
2022/03/18 02:28:55;;;;;;;14.02;3.08;;;;;;;5.23;100.00;104059.06;5053375;28;20508;-30
2022/03/18 02:31:22;;;;;;;12.68;2.80;;;;;;;5.28;100.00;104051.94;5051664;28;20051;-29
2022/03/18 02:33:50;;;;;;;6.70;1.95;;;;;;;5.30;100.00;104049.84;5053333;28;20140;-28
2022/03/18 02:36:18;;;;;;;14.20;2.90;;;;;;;5.34;100.00;104051.19;5053111;28;20053;-29
2022/03/18 02:38:46;;;;;;;7.68;2.60;;;;;;;5.36;100.00;104049.09;5052438;28;20058;-28
2022/03/18 02:41:15;;;;;;;9.43;2.33;;;;;;;5.36;100.00;104053.78;5053263;28;20044;-29
2022/03/18 02:43:42;;;;;;;13.45;3.00;;;;;;;5.36;100.00;104045.47;5053006;28;20041;-34
2022/03/18 02:46:10;;;;;;;10.63;3.05;;;;;;;5.39;100.00;104056.19;5052098;28;20040;-29
2022/03/18 02:48:38;;;;;;;10.73;2.55;;;;;;;5.40;100.00;104052.34;5052935;28;20041;-28
2022/03/18 02:51:07;;;;;;;9.60;2.60;;;;;;;5.43;100.00;104050.06;5052881;28;20051;-28
2022/03/18 02:53:35;;;;;;;10.77;2.78;;;;;;;5.50;100.00;104042.75;5052227;28;20079;-31
2022/03/18 02:56:04;;;;;;;12.63;2.97;;;;;;;5.55;100.00;104053.25;5052982;28;20045;-28
2022/03/18 02:58:34;;;;;;;11.18;2.97;;;;;;;5.59;100.00;104049.06;5052060;28;20072;-28
2022/03/18 03:01:03;;;;;;;12.13;3.20;;;;;;;5.61;100.00;104049.72;5041847;28;20128;-33
2022/03/18 03:03:31;;;;;;;13.88;2.72;;;;;;;5.62;100.00;104047.81;5052831;28;20383;-30
2022/03/18 03:08:44;;;;;;;16.73;3.00;;;;;;;5.59;100.00;104054.63;5052756;28;20044;-28
2022/03/18 03:11:12;;;;;;;12.93;3.00;;;;;;;5.61;100.00;104049.72;5052452;28;20135;-29
2022/03/18 03:13:41;;;;;;;18.05;2.90;;;;;;;5.62;100.00;104045.03;5051796;28;20391;-31
2022/03/18 03:16:09;;;;;;;10.05;2.60;;;;;;;5.65;100.00;104050.22;5049022;28;20045;-28
2022/03/18 03:18:37;;;;;;;19.33;3.08;;;;;;;5.67;100.00;104056.44;5052603;28;20053;-28
2022/03/18 03:21:05;;;;;;;16.08;3.00;;;;;;;5.71;100.00;104064.19;5051295;28;20461;-29
2022/03/18 03:23:32;;;;;;;11.23;2.60;;;;;;;5.74;100.00;104068.50;5052499;28;20080;-31
2022/03/18 03:26:00;;;;;;;9.30;2.55;;;;;;;5.75;100.00;104070.22;5051451;28;20139;-28
2022/03/18 03:28:28;;;;;;;16.80;2.65;;;;;;;5.77;100.00;104077.28;5050452;28;20410;-30
2022/03/18 03:30:57;;;;;;;10.85;2.28;;;;;;;5.81;100.00;104075.84;5052212;28;20159;-35
2022/03/18 03:33:26;;;;;;;11.15;2.60;;;;;;;5.83;100.00;104079.28;5052231;28;20045;-32
2022/03/18 03:35:54;;;;;;;8.82;2.13;;;;;;;5.83;100.00;104078.41;5051160;28;20093;-29
2022/03/18 03:38:23;;;;;;;10.07;2.00;;;;;;;5.84;100.00;104080.16;5052189;28;20049;-28
2022/03/18 03:40:51;;;;;;;7.55;1.70;;;;;;;5.85;100.00;104087.41;5051281;28;20468;-28
2022/03/18 03:43:18;;;;;;;10.65;1.88;;;;;;;5.86;100.00;104084.44;5051725;28;20056;-28
2022/03/18 03:45:46;;;;;;;9.27;1.67;;;;;;;5.90;100.00;104092.44;5051926;28;20421;-29
2022/03/18 03:48:15;;;;;;;9.73;1.65;;;;;;;5.92;100.00;104093.09;5049857;28;20041;-28
2022/03/18 03:50:43;;;;;;;9.50;1.63;;;;;;;5.92;100.00;104096.75;5049635;28;20416;-28
2022/03/18 03:53:11;;;;;;;7.45;1.75;;;;;;;5.93;100.00;104092.91;5049629;28;20060;-29
2022/03/18 03:55:40;;;;;;;7.07;2.10;;;;;;;5.95;100.00;104092.72;5048771;28;20049;-28
2022/03/18 03:58:09;;;;;;;7.32;1.63;;;;;;;5.97;100.00;104101.72;5050050;28;20045;-31
2022/03/18 04:00:37;;;;;;;9.30;1.70;;;;;;;5.99;100.00;104096.84;5049696;28;20045;-30
2022/03/18 04:03:05;;;;;;;8.05;1.58;;;;;;;6.01;100.00;104109.44;5048832;28;20498;-28
2022/03/18 04:05:38;;;;;;;8.23;1.52;;;;;;;6.03;100.00;104096.25;5051189;28;20040;-29
2022/03/18 04:08:06;;;;;;;14.35;2.30;;;;;;;6.02;100.00;104088.13;5051300;28;20155;-28
2022/03/18 04:10:34;;;;;;;11.63;1.75;;;;;;;6.05;100.00;104099.69;5051085;28;20397;-28
2022/03/18 04:13:01;;;;;;;7.45;1.63;;;;;;;6.05;100.00;104105.25;5047040;28;20053;-30
2022/03/18 04:15:29;;;;;;;8.15;1.85;;;;;;;6.04;100.00;104105.44;5050832;28;20053;-29
2022/03/18 04:17:57;;;;;;;12.40;2.20;;;;;;;6.03;100.00;104107.34;5050622;28;20161;-29
2022/03/18 04:20:25;;;;;;;12.65;1.92;;;;;;;6.02;100.00;104113.94;5051956;28;20048;-29
2022/03/18 04:22:54;;;;;;;10.90;2.20;;;;;;;6.04;100.00;104113.75;5050697;28;20048;-29
2022/03/18 04:25:22;;;;;;;13.23;1.95;;;;;;;6.06;100.00;104114.44;5050655;28;20049;-29
2022/03/18 04:27:49;;;;;;;7.30;2.00;;;;;;;6.08;100.00;104120.66;5051564;28;20060;-29
2022/03/18 04:30:17;;;;;;;8.52;1.75;;;;;;;6.08;100.00;104115.09;5050581;28;20049;-29
2022/03/18 04:32:46;;;;;;;7.65;1.75;;;;;;;6.09;100.00;104116.81;5051409;28;20091;-32
2022/03/18 04:35:13;;;;;;;11.40;1.92;;;;;;;6.06;100.00;104131.91;5051045;28;20516;-31
2022/03/18 04:37:42;;;;;;;7.22;1.90;;;;;;;6.04;100.00;104130.38;5050869;28;20067;-30
2022/03/18 04:40:13;;;;;;;10.73;2.00;;;;;;;6.03;100.00;104132.28;5055072;28;20516;-30
2022/03/18 04:42:44;;;;;;;9.83;2.13;;;;;;;6.02;100.00;104138.88;5053428;28;20047;-29
2022/03/18 04:45:12;;;;;;;8.25;2.08;;;;;;;6.02;100.00;104147.22;5052333;28;20830;-30
2022/03/18 04:47:40;;;;;;;10.88;2.20;;;;;;;6.04;100.00;104144.25;5053444;28;20047;-29
2022/03/18 04:50:10;;;;;;;8.95;2.50;;;;;;;6.05;100.00;104149.59;5054028;28;20037;-29
2022/03/18 04:52:38;;;;;;;4.75;1.50;;;;;;;6.01;100.00;104148.25;5053103;28;20048;-28
2022/03/18 04:55:07;;;;;;;5.15;1.25;;;;;;;5.97;100.00;104166.34;5053877;28;20048;-28
2022/03/18 04:57:37;;;;;;;7.47;1.70;;;;;;;5.92;100.00;104157.72;5054278;28;20049;-29
2022/03/18 05:00:06;;;;;;;7.22;2.08;;;;;;;5.88;100.00;104165.53;5054528;28;20480;-28
2022/03/18 05:02:35;;;;;;;10.43;1.63;;;;;;;5.85;100.00;104170.56;5055077;28;20375;-28
2022/03/18 05:05:04;;;;;;;5.85;1.65;;;;;;;5.80;100.00;104179.41;5054592;28;20049;-28
2022/03/18 05:07:32;;;;;;;5.90;1.70;;;;;;;5.78;100.00;104177.91;5054834;28;20052;-27
2022/03/18 05:10:00;;;;;;;6.00;1.50;;;;;;;5.75;100.00;104169.97;5054684;28;20045;-30
2022/03/18 05:12:27;;;;;;;6.22;1.50;;;;;;;5.72;100.00;104170.34;5053996;28;20058;-27
2022/03/18 05:14:57;;;;;;;3.88;1.30;;;;;;;5.69;100.00;104181.78;5053269;28;20049;-28
2022/03/18 05:17:25;;;;;;;10.02;1.73;;;;;;;5.66;100.00;104188.53;5055060;28;20048;-31
2022/03/18 05:19:52;;;;;;;5.28;1.60;;;;;;;5.64;100.00;104176.78;5053430;28;20045;-34
2022/03/18 05:22:21;;;;;;;7.00;1.90;;;;;;;5.68;100.00;104186.47;5054550;28;20053;-27
2022/03/18 05:24:49;;;;;;;9.77;2.70;;;;;;;5.72;100.00;104189.72;5054379;28;20052;-28
2022/03/18 05:27:18;;;;;;;8.98;2.08;;;;;;;5.69;100.00;104193.72;5053505;28;20063;-30
2022/03/18 05:29:45;;;;;;;6.30;1.50;;;;;;;5.65;100.00;104191.50;5054381;28;20484;-28
2022/03/18 05:32:15;;;;;;;5.20;1.40;;;;;;;5.60;100.00;104197.59;5054122;28;20505;-29
2022/03/18 05:34:43;;;;;;;2.85;1.10;;;;;;;5.58;100.00;104191.41;5053384;28;20049;-29
2022/03/18 05:37:11;;;;;;;4.50;1.25;;;;;;;5.53;100.00;104189.16;5053874;28;20041;-28
2022/03/18 05:39:39;;;;;;;5.38;1.67;;;;;;;5.50;100.00;104186.75;5053676;28;20446;-28
2022/03/18 05:42:07;;;;;;;5.97;1.50;;;;;;;5.50;100.00;104188.66;5052931;28;20127;-29
2022/03/18 05:44:35;;;;;;;8.68;2.00;;;;;;;5.49;100.00;104184.19;5053975;28;20056;-35
2022/03/18 05:47:03;;;;;;;3.78;1.23;;;;;;;5.47;100.00;104197.34;5053475;28;20045;-29
2022/03/18 05:49:33;;;;;;;4.70;1.38;;;;;;;5.44;100.00;104206.00;5052520;28;20073;-28
2022/03/18 05:52:06;;;;;;;8.75;2.60;;;;;;;5.41;100.00;104212.78;5053736;28;20362;-29
2022/03/18 05:54:34;;;;;;;7.25;1.60;;;;;;;5.40;100.00;104219.34;5052483;28;20041;-29
2022/03/18 05:57:02;;;;;;;4.60;1.67;;;;;;;5.40;100.00;104219.34;5053714;28;20055;-28
2022/03/18 05:59:33;;;;;;;5.88;1.92;;;;;;;5.37;100.00;104229.97;5052941;28;20401;-28
2022/03/18 06:02:01;;;;;;;7.25;1.90;;;;;;;5.34;100.00;104233.97;5051461;28;20152;-28
2022/03/18 06:04:31;;;;;;;5.90;1.90;;;;;;;5.32;100.00;104229.63;5053312;28;20053;-28
2022/03/18 06:07:04;;;;;;;4.32;1.10;;;;;;;5.31;100.00;104231.53;5053322;28;20413;-30
2022/03/18 06:12:18;;;;;;;4.88;1.30;;;;;;;5.27;100.00;104232.09;5053529;28;20037;-28
2022/03/18 06:14:45;;;;;;;3.35;1.10;;;;;;;5.26;100.00;104230.34;5053374;28;20053;-28
2022/03/18 06:17:13;;;;;;;4.93;1.55;;;;;;;5.27;100.00;104232.09;5051977;28;20490;-28
2022/03/18 06:19:41;;;;;;;3.33;1.27;;;;;;;5.28;100.00;104229.13;5052435;28;20045;-29
2022/03/18 06:22:11;;;;;;;3.28;1.23;;;;;;;5.30;100.00;104229.81;5051690;28;20098;-30
2022/03/18 06:24:40;;;;;;;3.97;1.50;;;;;;;5.31;100.00;104234.31;5052318;28;20060;-29
2022/03/18 06:27:07;;;;;;;4.50;1.42;;;;;;;5.30;100.00;104235.34;5051640;28;20045;-28
2022/03/18 06:29:37;;;;;;;3.75;1.27;;;;;;;5.29;100.00;104238.31;5050573;28;20053;-29
2022/03/18 06:32:05;;;;;;;6.63;1.30;;;;;;;5.30;100.00;104240.03;5053015;28;20045;-28
2022/03/18 06:34:33;;;;;;;5.55;1.40;;;;;;;5.30;100.00;104243.66;5051367;28;20064;-28
2022/03/18 06:37:01;;;;;;;7.55;1.88;;;;;;;5.33;100.00;104251.63;5051150;28;20057;-28
2022/03/18 06:39:30;;;;;;;3.60;1.42;;;;;;;5.35;100.00;104249.53;5051749;28;20586;-29
2022/03/18 06:41:58;;;;;;;4.38;1.77;;;;;;;5.38;100.00;104253.84;5051448;28;20528;-29
2022/03/18 06:44:27;;;;;;;4.60;1.60;;;;;;;5.41;100.00;104256.22;5051554;28;20051;-29
2022/03/18 06:46:54;;;;;;;5.20;1.55;;;;;;;5.44;100.00;104253.09;5051372;28;20040;-34
2022/03/18 06:49:22;;;;;;;5.82;1.67;;;;;;;5.48;100.00;104257.22;5050484;28;20055;-29
2022/03/18 06:51:50;;;;;;;3.33;1.80;;;;;;;5.53;100.00;104265.88;5052089;28;20049;-31
2022/03/18 06:54:18;;;;;;;5.68;2.22;;;;;;;5.63;100.00;104269.25;5052735;28;20053;-28
2022/03/18 06:56:47;;;;;;;12.10;2.28;;;;;;;5.88;100.00;104279.16;5050855;28;20052;-29
2022/03/18 06:59:14;;;;;;;7.70;2.38;;;;;;;6.34;100.00;104294.94;5050810;28;20139;-28
2022/03/18 07:01:42;;;;;;;11.60;2.97;;;;;;;6.91;100.00;104298.84;5050782;28;20048;-30
2022/03/18 07:04:10;;;;;;;11.90;3.47;;;;;;;7.56;100.00;104299.97;5051292;28;20048;-35
2022/03/18 07:06:38;;;;;;;13.00;3.70;;;;;;;8.24;100.00;104313.31;5050473;28;20080;-33
2022/03/18 07:09:06;;;;;;;12.13;3.70;;;;;;;8.93;100.00;104312.66;5049552;28;20506;-30
2022/03/18 07:11:33;;;;;;;14.48;3.90;;;;;;;9.57;100.00;104318.81;5051007;28;20047;-31
2022/03/18 07:14:02;;;;;;;11.15;3.65;;;;;;;10.19;100.00;104319.66;5046120;28;20041;-29
2022/03/18 07:19:24;;;;;;;11.02;2.83;;;;;;;11.46;100.00;104336.94;5001007;28;20057;-28
2022/03/18 07:21:51;;;;;;;8.65;2.42;;;;;;;12.03;100.00;104338.88;5046761;28;20044;-29
2022/03/18 07:24:19;;;;;;;12.15;3.00;;;;;;;12.62;100.00;104342.34;5051050;28;20136;-31
2022/03/18 07:26:47;;;;;;;15.70;3.53;;;;;;;13.14;100.00;104343.81;5050540;28;20064;-29
2022/03/18 07:29:16;;;;;;;13.98;3.17;;;;;;;13.69;100.00;104344.69;5050413;28;20546;-29
2022/03/18 07:31:44;;;;;;;10.82;2.70;;;;;;;14.18;100.00;104347.50;5047876;28;20135;-30
2022/03/18 07:34:11;;;;;;;13.85;2.30;;;;;;;14.70;100.00;104348.63;5050008;28;20056;-33
2022/03/18 07:36:39;;;;;;;9.57;2.70;;;;;;;15.21;100.00;104350.72;5050243;28;20063;-29
2022/03/18 07:39:07;;;;;;;9.60;2.30;;;;;;;15.66;100.00;104353.75;5050819;28;20048;-32
2022/03/18 07:41:35;;;;;;;7.13;2.15;;;;;;;16.12;100.00;104363.16;5049707;28;20048;-29
2022/03/18 07:44:04;;;;;;;6.00;2.08;;;;;;;16.52;100.00;104349.84;5050592;28;20045;-29
2022/03/18 07:46:34;;;;;;;8.40;2.30;;;;;;;16.94;100.00;104357.06;5050263;28;20551;-29
2022/03/18 07:49:02;;;;;;;9.65;2.28;;;;;;;17.31;100.00;104346.91;5041699;28;20041;-29
2022/03/18 07:51:30;;;;;;;7.70;2.00;;;;;;;17.70;97.93;104366.69;5050215;28;20045;-29
2022/03/18 07:53:58;;;;;;;7.50;2.47;;;;;;;18.08;95.01;104355.28;5049633;28;20051;-30
2022/03/18 07:56:26;;;;;;;6.45;2.03;;;;;;;18.38;90.64;104359.59;5050496;28;20057;-30
2022/03/18 07:58:54;;;;;;;6.35;2.30;;;;;;;18.62;88.49;104355.31;5050401;28;20044;-30
2022/03/18 08:01:22;;;;;;;6.70;2.13;;;;;;;18.93;86.06;104365.78;5048814;28;20127;-29
2022/03/18 08:03:51;;;;;;;7.85;2.17;;;;;;;19.23;83.54;104369.94;5050195;28;20099;-29
2022/03/18 08:06:20;;;;;;;7.97;2.30;;;;;;;19.51;81.26;104377.25;5048840;28;20118;-29
2022/03/18 08:08:48;;;;;;;6.13;2.28;;;;;;;19.77;78.72;104375.41;5049299;28;20045;-30
2022/03/18 08:11:16;;;;;;;9.27;2.67;;;;;;;19.99;75.68;104378.88;5050005;28;20061;-31
2022/03/18 08:13:50;;;;;;;7.35;2.55;;;;;;;20.17;74.25;104386.91;5049810;28;20132;-32
2022/03/18 08:16:18;;;;;;;6.60;2.42;;;;;;;20.34;72.62;104391.47;5047484;28;20159;-30
2022/03/18 08:18:46;;;;;;;7.60;2.58;;;;;;;20.60;71.69;104408.28;5049936;28;20049;-32
2022/03/18 08:21:16;;;;;;;8.70;2.10;;;;;;;20.89;69.56;104400.06;5049436;28;20067;-31
2022/03/18 08:23:44;;;;;;;8.85;2.65;;;;;;;21.16;67.30;104408.31;5049122;28;20072;-29
2022/03/18 08:26:12;;;;;;;8.48;2.50;;;;;;;21.37;65.36;104408.31;5048995;28;20060;-30
2022/03/18 08:28:39;;;;;;;8.25;2.60;;;;;;;21.56;64.21;104409.41;5048761;28;20051;-30
2022/03/18 08:31:08;;;;;;;6.95;1.98;;;;;;;21.71;62.76;104411.34;5049039;28;20432;-34
2022/03/18 08:33:37;;;;;;;9.98;3.05;;;;;;;21.87;60.71;104411.00;5049475;28;20057;-35
2022/03/18 08:36:05;;;;;;;7.72;2.08;;;;;;;22.07;59.36;104415.78;5050208;28;20155;-32
2022/03/18 08:38:34;;;;;;;10.00;2.90;;;;;;;22.19;57.74;104421.97;5051062;28;20458;-34
2022/03/18 08:41:02;;;;;;;8.52;2.33;;;;;;;22.31;56.66;104424.50;5050874;28;20052;-29
2022/03/18 08:43:30;;;;;;;9.27;2.40;;;;;;;22.50;56.32;104422.66;5050188;28;20063;-30
2022/03/18 08:45:58;;;;;;;7.88;2.55;;;;;;;22.64;55.18;104420.84;5051199;28;20148;-37
2022/03/18 08:48:26;;;;;;;6.57;2.10;;;;;;;22.75;54.39;104427.34;5050365;28;20132;-37
2022/03/18 08:50:54;;;;;;;8.48;2.25;;;;;;;22.74;53.47;104442.72;5065241;28;20128;-32
2022/03/18 08:53:22;;;;;;;8.73;2.38;;;;;;;22.78;52.92;104448.72;5049908;28;20064;-29
2022/03/18 08:55:51;;;;;;;8.77;2.25;;;;;;;22.86;52.27;104454.63;5050341;28;20053;-33
2022/03/18 08:58:20;;;;;;;7.18;2.08;;;;;;;22.99;52.05;104455.94;5049689;28;20059;-32
2022/03/18 09:00:47;;;;;;;7.60;2.38;;;;;;;23.14;51.39;104461.53;5050501;28;20040;-31
2022/03/18 09:03:15;;;;;;;8.32;2.13;;;;;;;23.27;50.73;104457.13;5050781;28;20056;-29
2022/03/18 09:05:43;;;;;;;6.50;2.10;;;;;;;23.38;49.47;104467.31;5050100;28;20083;-33
2022/03/18 09:08:11;;;;;;;7.55;1.95;;;;;;;23.48;49.13;104469.19;5050628;28;20037;-31
2022/03/18 09:10:39;;;;;;;7.03;2.40;;;;;;;23.54;48.02;104470.88;5051003;28;20048;-31
2022/03/18 09:13:10;;;;;;;8.30;1.80;;;;;;;23.53;47.81;104472.88;5050017;28;20473;-31
2022/03/18 09:15:37;;;;;;;7.68;2.13;;;;;;;23.51;46.74;104468.59;5051095;28;20096;-37
2022/03/18 09:18:05;;;;;;;8.05;2.90;;;;;;;23.44;45.78;104473.78;5050678;28;20494;-33
2022/03/18 09:20:33;;;;;;;8.82;2.60;;;;;;;23.32;45.77;104477.03;5049929;28;20045;-29
2022/03/18 09:23:01;;;;;;;8.07;2.40;;;;;;;23.23;46.12;104473.97;5050650;28;20053;-30
2022/03/18 09:25:28;;;;;;;6.97;2.05;;;;;;;23.10;45.70;104480.34;5049064;28;20525;-28
2022/03/18 09:27:58;;;;;;;8.60;2.17;;;;;;;22.95;46.22;104489.88;5054391;28;20462;-29
2022/03/18 09:30:47;;;;;;;8.10;2.28;;;;;;;23.04;46.04;104495.78;5051755;28;20037;-30
2022/03/18 09:33:15;;;;;;;8.77;2.35;;;;;;;23.01;45.92;104500.06;5053150;28;20084;-31
2022/03/18 09:35:44;;;;;;;7.50;2.45;;;;;;;23.05;45.37;104506.03;5054503;28;20136;-30
2022/03/18 09:38:11;;;;;;;9.15;2.33;;;;;;;23.05;45.65;104508.88;5054129;28;20063;-37
2022/03/18 09:40:41;;;;;;;8.45;2.40;;;;;;;23.05;44.68;104510.88;5052146;28;20049;-31
2022/03/18 09:43:33;;;;;;;8.85;2.20;;;;;;;22.90;44.91;104515.53;5053897;28;20072;-31
2022/03/18 09:46:03;;;;;;;9.70;2.38;;;;;;;22.78;45.81;104506.50;5051566;28;20545;-32
2022/03/18 09:48:52;;;;;;;10.38;2.45;;;;;;;22.84;46.14;104507.31;5051709;28;20053;-35
2022/03/18 09:51:20;;;;;;;10.98;2.58;;;;;;;22.96;45.37;104514.38;5049970;28;20434;-31
2022/03/18 09:54:09;;;;;;;9.27;2.38;;;;;;;22.83;45.33;104517.84;5052600;28;20437;-30
2022/03/18 09:56:39;;;;;;;9.23;2.38;;;;;;;22.52;45.06;104516.31;5053744;28;20049;-30
2022/03/18 09:59:07;;;;;;;10.13;2.50;;;;;;;22.23;45.43;104517.00;5053596;28;20052;-31
2022/03/18 10:01:37;;;;;;;9.18;2.40;;;;;;;22.20;45.76;104523.25;5053147;28;20055;-32
2022/03/18 10:04:07;;;;;;;7.53;2.15;;;;;;;22.19;45.99;104524.41;5053636;28;20049;-32
2022/03/18 10:06:35;;;;;;;8.05;1.98;;;;;;;22.32;46.03;104522.94;5053066;28;20106;-34
2022/03/18 10:09:04;;;;;;;10.35;2.42;;;;;;;22.50;44.97;104529.97;5053306;28;20041;-30
2022/03/18 10:11:35;;;;;;;10.20;2.33;;;;;;;22.56;44.48;104523.13;5053229;28;20131;-34
2022/03/18 10:14:06;;;;;;;11.23;2.40;;;;;;;22.52;44.39;104524.84;5053449;28;20135;-34
2022/03/18 10:16:36;;;;;;;7.55;2.22;;;;;;;22.64;44.29;104522.50;5052806;28;20053;-34
2022/03/18 10:19:08;;;;;;;8.02;2.03;;;;;;;22.69;43.90;104537.56;5045759;28;20053;-35
2022/03/18 10:21:50;;;;;;;7.57;1.90;;;;;;;22.78;42.66;104543.50;5052937;28;20041;-37
2022/03/18 10:24:22;;;;;;;8.18;2.50;;;;;;;22.54;44.07;104534.81;5046373;28;20131;-35
2022/03/18 10:26:50;;;;;;;9.05;2.35;;;;;;;22.42;44.35;104530.56;5052969;28;20060;-28
2022/03/18 10:29:18;;;;;;;10.10;2.40;;;;;;;22.33;44.68;104541.72;5052304;28;20055;-29
2022/03/18 10:32:00;;;;;;;12.18;2.50;;;;;;;22.29;41.84;104543.44;5053358;28;20055;-31
2022/03/18 10:37:22;;;;;;;10.68;2.40;;;;;;;21.65;45.04;104544.97;5050688;28;20045;-26
2022/03/18 10:39:51;;;;;;;7.35;1.90;;;;;;;21.73;46.10;104543.56;5050868;28;20060;-30
2022/03/18 10:42:20;;;;;;;6.82;2.30;;;;;;;21.85;45.61;104540.41;5051855;28;20060;-32
2022/03/18 10:44:51;;;;;;;8.77;2.35;;;;;;;21.88;45.15;104545.50;5051978;28;20049;-34
2022/03/18 10:47:30;;;;;;;7.95;1.98;;;;;;;21.54;44.82;104545.28;5051658;28;20080;-39
2022/03/18 10:50:21;;;;;;;7.45;2.10;;;;;;;21.07;46.11;104546.34;5050715;28;20501;-34
2022/03/18 10:53:05;;;;;;;9.80;2.13;;;;;;;21.29;46.09;104552.66;5051902;28;20136;-32
2022/03/18 10:55:36;;;;;;;10.23;2.50;;;;;;;21.59;46.55;104557.47;5052021;28;20516;-30
2022/03/18 10:58:08;;;;;;;9.05;2.53;;;;;;;21.84;45.48;104558.59;5051099;28;20487;-30
2022/03/18 11:00:37;;;;;;;11.02;2.53;;;;;;;21.91;45.42;104559.16;5052615;28;20045;-30
2022/03/18 11:03:06;;;;;;;10.98;2.47;;;;;;;21.92;45.40;104560.88;5052556;28;20037;-30
2022/03/18 11:05:37;;;;;;;11.10;2.60;;;;;;;21.95;45.11;104565.97;5043561;28;20049;-29
2022/03/18 11:08:07;;;;;;;10.35;2.50;;;;;;;21.87;45.21;104570.25;5052732;28;20087;-35
2022/03/18 11:13:23;;;;;;;15.63;3.95;;;;;;;21.59;45.77;104567.97;5051889;28;20110;-29
2022/03/18 11:15:53;;;;;;;11.18;2.67;;;;;;;21.38;46.17;104578.53;5051433;28;20098;-31
2022/03/18 11:18:21;;;;;;;12.95;2.85;;;;;;;21.19;46.84;104565.94;5051545;28;20084;-30
2022/03/18 11:20:51;;;;;;;9.60;2.60;;;;;;;21.06;47.19;104569.34;5052006;28;20490;-30
2022/03/18 11:23:20;;;;;;;11.15;2.63;;;;;;;20.97;47.17;104569.06;5052085;28;20502;-32
2022/03/18 11:25:51;;;;;;;9.63;2.55;;;;;;;20.90;47.87;104574.97;5051553;28;20056;-34
2022/03/18 11:28:20;;;;;;;8.90;2.30;;;;;;;20.95;47.95;104580.69;5052120;28;20049;-29
2022/03/18 11:31:00;;;;;;;11.20;2.45;;;;;;;21.03;48.27;104581.25;5050525;28;20577;-31
2022/03/18 11:33:29;;;;;;;11.73;2.80;;;;;;;21.01;47.96;104577.84;5050991;28;20508;-34
2022/03/18 11:36:09;;;;;;;14.43;2.55;;;;;;;21.07;47.62;104577.56;5051629;28;20557;-33
2022/03/18 11:38:59;;;;;;;8.85;2.13;;;;;;;21.17;46.96;104571.94;5051922;28;20053;-35
2022/03/18 11:41:28;;;;;;;9.85;2.38;;;;;;;21.17;48.27;104574.78;5051207;28;20436;-30
2022/03/18 11:43:56;;;;;;;8.95;2.42;;;;;;;21.22;48.48;104573.94;5051581;28;20052;-34
2022/03/18 11:46:27;;;;;;;10.02;2.33;;;;;;;21.17;48.51;104577.63;5050622;28;20048;-35
2022/03/18 11:48:57;;;;;;;10.23;2.28;;;;;;;21.10;48.60;104571.34;5052052;28;20159;-33
2022/03/18 11:51:29;;;;;;;9.80;2.30;;;;;;;21.10;48.38;104571.34;5051885;28;20131;-29